createdAt,value
2018-03-18T00:02:27.197Z,25.27
2018-03-18T00:04:55.166Z,25.02
2018-03-18T00:07:23.033Z,23.38
2018-03-18T00:09:50.900Z,27.65
2018-03-18T00:12:18.787Z,28.50
2018-03-18T00:14:47.361Z,26.65
2018-03-18T00:17:15.321Z,31.35
2018-03-18T00:19:43.190Z,29.83
2018-03-18T00:22:11.057Z,24.40
2018-03-18T00:24:38.924Z,27.15
2018-03-18T00:27:06.792Z,27.45
2018-03-18T00:29:34.659Z,26.83
2018-03-18T00:32:02.526Z,27.65
2018-03-18T00:34:30.397Z,32.33
2018-03-18T00:36:58.260Z,25.90
2018-03-18T00:39:26.129Z,33.10
2018-03-18T00:41:53.995Z,22.48
2018-03-18T00:44:21.862Z,24.30
2018-03-18T00:46:49.661Z,26.77
2018-03-18T00:49:18.313Z,24.73
2018-03-18T00:51:58.162Z,24.52
2018-03-18T00:54:26.029Z,28.12
2018-03-18T00:56:53.896Z,23.40
2018-03-18T00:59:21.764Z,25.58
2018-03-18T01:01:49.564Z,24.50
2018-03-18T01:04:18.215Z,22.67
2018-03-18T01:06:46.083Z,28.80
2018-03-18T01:09:13.951Z,25.12
2018-03-18T01:11:41.818Z,26.45
2018-03-18T01:14:09.685Z,26.65
2018-03-18T01:16:37.553Z,26.30
2018-03-18T01:19:05.424Z,24.27
2018-03-18T01:21:33.287Z,30.75
2018-03-18T01:24:01.155Z,26.95
2018-03-18T01:26:29.022Z,32.30
2018-03-18T01:28:56.889Z,24.63
2018-03-18T01:31:24.756Z,25.92
2018-03-18T01:33:52.623Z,27.25
2018-03-18T01:36:20.491Z,27.70
2018-03-18T01:38:48.358Z,26.05
2018-03-18T01:41:16.161Z,26.10
2018-03-18T01:43:44.813Z,27.60
2018-03-18T01:46:12.679Z,28.60
2018-03-18T01:48:40.544Z,26.70
2018-03-18T01:51:08.341Z,24.63
2018-03-18T01:53:36.996Z,27.27
2018-03-18T01:56:04.863Z,30.60
2018-03-18T01:58:32.736Z,31.25
2018-03-18T02:01:00.599Z,27.35
2018-03-18T02:03:28.466Z,29.08
2018-03-18T02:05:56.333Z,32.63
2018-03-18T02:08:24.200Z,31.70
2018-03-18T02:10:52.067Z,26.77
2018-03-18T02:13:19.940Z,30.15
2018-03-18T02:15:47.801Z,30.80
2018-03-18T02:18:15.668Z,33.42
2018-03-18T02:20:43.536Z,26.50
2018-03-18T02:23:11.402Z,38.72
2018-03-18T02:25:39.271Z,30.37
2018-03-18T02:28:07.138Z,29.60
2018-03-18T02:30:35.007Z,29.70
2018-03-18T02:33:02.877Z,31.50
2018-03-18T02:35:30.740Z,33.22
2018-03-18T02:37:58.623Z,27.35
2018-03-18T02:40:26.475Z,36.03
2018-03-18T02:42:54.343Z,34.35
2018-03-18T02:45:22.211Z,32.80
2018-03-18T02:47:50.010Z,26.67
2018-03-18T02:50:18.659Z,27.83
2018-03-18T02:52:46.528Z,25.25
2018-03-18T02:55:14.395Z,29.45
2018-03-18T02:57:42.267Z,28.23
2018-03-18T03:00:10.131Z,28.20
2018-03-18T03:02:37.999Z,29.50
2018-03-18T03:05:05.870Z,26.55
2018-03-18T03:07:33.740Z,28.35
2018-03-18T03:10:01.600Z,25.98
2018-03-18T03:12:29.466Z,25.42
2018-03-18T03:14:57.334Z,26.65
2018-03-18T03:17:25.193Z,27.65
2018-03-18T03:19:53.069Z,28.38
2018-03-18T03:22:20.936Z,28.87
2018-03-18T03:24:48.804Z,28.95
2018-03-18T03:27:16.674Z,31.40
2018-03-18T03:29:44.541Z,33.92
2018-03-18T03:32:12.407Z,31.15
2018-03-18T03:34:40.272Z,28.60
2018-03-18T03:37:08.140Z,27.90
2018-03-18T03:39:36.008Z,29.17
2018-03-18T03:42:03.874Z,25.50
2018-03-18T03:44:32.561Z,29.10
2018-03-18T03:47:00.429Z,28.52
2018-03-18T03:49:28.296Z,26.85
2018-03-18T03:51:56.165Z,29.10
2018-03-18T03:54:24.031Z,34.10
2018-03-18T03:56:51.907Z,27.50
2018-03-18T03:59:19.766Z,30.52
2018-03-18T04:01:47.635Z,28.38
2018-03-18T04:04:15.499Z,27.77
2018-03-18T04:06:43.367Z,29.08
2018-03-18T04:09:11.235Z,29.85
2018-03-18T04:11:39.102Z,27.52
2018-03-18T04:14:06.970Z,24.60
2018-03-18T04:16:34.837Z,28.87
2018-03-18T04:19:02.705Z,24.60
2018-03-18T04:21:30.572Z,25.33
2018-03-18T04:23:58.439Z,27.58
2018-03-18T04:26:30.599Z,29.00
2018-03-18T04:29:01.590Z,30.48
2018-03-18T04:31:34.154Z,34.05
2018-03-18T04:34:05.575Z,30.65
2018-03-18T04:36:41.219Z,25.90
2018-03-18T04:39:31.377Z,29.92
2018-03-18T04:42:04.326Z,23.67
2018-03-18T04:44:36.518Z,31.25
2018-03-18T04:47:10.974Z,23.23
2018-03-18T04:49:40.825Z,25.37
2018-03-18T04:52:12.246Z,27.37
2018-03-18T04:54:42.471Z,25.98
2018-03-18T04:57:12.856Z,28.50
2018-03-18T04:59:43.643Z,23.00
2018-03-18T05:02:14.917Z,29.60
2018-03-18T05:04:45.942Z,29.50
2018-03-18T05:07:14.148Z,25.27
2018-03-18T05:09:46.036Z,21.77
2018-03-18T05:12:16.486Z,28.70
2018-03-18T05:14:48.235Z,23.48
2018-03-18T05:17:18.733Z,30.80
2018-03-18T05:19:49.626Z,28.50
2018-03-18T05:22:19.817Z,23.10
2018-03-18T05:24:47.712Z,25.70
2018-03-18T05:27:15.577Z,23.23
2018-03-18T05:29:43.444Z,33.75
2018-03-18T05:32:11.311Z,28.85
2018-03-18T05:34:39.179Z,27.02
2018-03-18T05:37:07.046Z,36.38
2018-03-18T05:39:34.913Z,23.08
2018-03-18T05:42:03.087Z,24.55
2018-03-18T05:44:30.894Z,26.42
2018-03-18T05:46:59.539Z,28.15
2018-03-18T05:49:27.408Z,27.37
2018-03-18T05:51:55.174Z,27.23
2018-03-18T05:54:23.039Z,31.00
2018-03-18T05:56:50.809Z,23.92
2018-03-18T05:59:18.672Z,24.87
2018-03-18T06:01:46.539Z,20.75
2018-03-18T06:04:14.406Z,23.62
2018-03-18T06:06:42.273Z,26.10
2018-03-18T06:09:10.141Z,21.17
2018-03-18T06:11:38.008Z,22.25
2018-03-18T06:14:05.890Z,21.95
2018-03-18T06:16:33.745Z,25.25
2018-03-18T06:19:01.637Z,18.35
2018-03-18T06:21:29.685Z,21.12
2018-03-18T06:23:58.675Z,21.92
2018-03-18T06:26:26.542Z,22.85
2018-03-18T06:28:54.409Z,18.27
2018-03-18T06:31:22.314Z,21.87
2018-03-18T06:33:50.862Z,23.23
2018-03-18T06:36:18.728Z,24.33
2018-03-18T06:38:46.596Z,28.30
2018-03-18T06:41:14.463Z,27.42
2018-03-18T06:43:42.332Z,28.50
2018-03-18T06:46:10.197Z,23.90
2018-03-18T06:48:38.065Z,27.95
2018-03-18T06:51:05.932Z,23.55
2018-03-18T06:53:33.799Z,22.98
2018-03-18T06:56:01.598Z,24.95
2018-03-18T06:58:30.250Z,21.17
2018-03-18T07:00:58.118Z,24.85
2018-03-18T07:03:25.985Z,16.92
2018-03-18T07:05:53.853Z,23.70
2018-03-18T07:08:21.720Z,24.20
2018-03-18T07:10:49.587Z,22.77
2018-03-18T07:13:17.454Z,23.23
2018-03-18T07:15:45.323Z,22.05
2018-03-18T07:18:13.190Z,21.90
2018-03-18T07:20:41.056Z,24.77
2018-03-18T07:23:08.930Z,19.77
2018-03-18T07:25:36.791Z,25.75
2018-03-18T07:28:04.659Z,26.62
2018-03-18T07:30:32.527Z,25.52
2018-03-18T07:33:00.394Z,20.15
2018-03-18T07:35:28.260Z,26.65
2018-03-18T07:37:56.128Z,19.20
2018-03-18T07:40:23.997Z,20.52
2018-03-18T07:42:51.862Z,23.12
2018-03-18T07:45:19.733Z,18.35
2018-03-18T07:47:47.600Z,19.27
2018-03-18T07:50:15.464Z,17.65
2018-03-18T07:52:43.331Z,18.95
2018-03-18T07:55:11.199Z,19.60
2018-03-18T07:57:39.066Z,21.15
2018-03-18T08:00:06.934Z,18.10
2018-03-18T08:02:34.800Z,17.27
2018-03-18T08:05:02.678Z,16.48
2018-03-18T08:07:30.544Z,20.25
2018-03-18T08:09:58.410Z,20.42
2018-03-18T08:12:26.270Z,19.40
2018-03-18T08:14:54.136Z,17.95
2018-03-18T08:17:22.005Z,22.33
2018-03-18T08:19:49.872Z,17.02
2018-03-18T08:22:17.739Z,27.37
2018-03-18T08:24:45.607Z,16.67
2018-03-18T08:27:13.473Z,17.90
2018-03-18T08:29:41.245Z,15.38
2018-03-18T08:32:09.106Z,20.00
2018-03-18T08:34:36.973Z,24.23
2018-03-18T08:37:04.841Z,18.75
2018-03-18T08:39:32.756Z,21.65
2018-03-18T08:42:01.394Z,19.73
2018-03-18T08:44:29.266Z,17.73
2018-03-18T08:46:57.134Z,19.25
2018-03-18T08:49:24.996Z,18.40
2018-03-18T08:51:52.864Z,14.55
2018-03-18T08:54:20.731Z,19.52
2018-03-18T08:56:48.604Z,16.20
2018-03-18T08:59:16.467Z,16.67
2018-03-18T09:01:44.333Z,14.87
2018-03-18T09:04:12.202Z,17.10
2018-03-18T09:06:40.103Z,21.40
2018-03-18T09:09:08.859Z,14.68
2018-03-18T09:11:36.724Z,14.65
2018-03-18T09:14:04.592Z,13.50
2018-03-18T09:16:32.459Z,16.67
2018-03-18T09:19:00.326Z,15.02
2018-03-18T09:21:28.193Z,19.45
2018-03-18T09:23:56.063Z,14.05
2018-03-18T09:26:23.928Z,18.05
2018-03-18T09:28:51.794Z,17.48
2018-03-18T09:31:19.568Z,18.62
2018-03-18T09:33:47.331Z,19.12
2018-03-18T09:36:15.192Z,17.60
2018-03-18T09:38:43.776Z,17.55
2018-03-18T09:41:11.586Z,16.58
2018-03-18T09:43:40.229Z,25.58
2018-03-18T09:46:08.096Z,16.42
2018-03-18T09:48:35.963Z,14.63
2018-03-18T09:51:03.831Z,16.12
2018-03-18T09:53:31.698Z,18.00
2018-03-18T09:55:59.566Z,16.55
2018-03-18T09:58:27.433Z,16.50
2018-03-18T10:00:55.300Z,17.35
2018-03-18T10:03:23.173Z,20.88
2018-03-18T10:05:51.034Z,15.43
2018-03-18T10:08:18.906Z,18.60
2018-03-18T10:10:46.770Z,15.15
2018-03-18T10:13:14.636Z,19.00
2018-03-18T10:15:42.504Z,18.17
2018-03-18T10:18:10.372Z,20.00
2018-03-18T10:20:38.238Z,14.15
2018-03-18T10:23:06.034Z,20.17
2018-03-18T10:25:34.708Z,15.20
2018-03-18T10:28:02.557Z,13.13
2018-03-18T10:30:30.424Z,17.58
2018-03-18T10:32:58.295Z,13.45
2018-03-18T10:35:26.162Z,12.82
2018-03-18T10:37:54.030Z,15.57
2018-03-18T10:40:21.897Z,17.17
2018-03-18T10:42:49.761Z,14.65
2018-03-18T10:45:17.628Z,18.62
2018-03-18T10:47:45.495Z,20.50
2018-03-18T10:50:13.362Z,15.98
2018-03-18T10:52:41.234Z,17.15
2018-03-18T10:55:09.101Z,16.37
2018-03-18T10:57:36.967Z,11.82
2018-03-18T11:00:04.834Z,14.57
2018-03-18T11:02:32.703Z,13.50
2018-03-18T11:05:00.571Z,15.13
2018-03-18T11:07:28.437Z,18.85
2018-03-18T11:09:56.303Z,17.92
2018-03-18T11:12:24.174Z,18.65
2018-03-18T11:14:52.038Z,16.85
2018-03-18T11:17:19.905Z,15.65
2018-03-18T11:19:47.772Z,14.63
2018-03-18T11:22:15.644Z,14.10
2018-03-18T11:24:43.507Z,15.00
2018-03-18T11:27:11.374Z,16.10
2018-03-18T11:29:39.242Z,16.27
2018-03-18T11:32:07.108Z,20.33
2018-03-18T11:34:34.978Z,16.85
2018-03-18T11:37:02.778Z,14.07
2018-03-18T11:39:31.462Z,19.50
2018-03-18T11:42:00.112Z,16.23
2018-03-18T11:44:27.983Z,14.02
2018-03-18T11:46:55.848Z,15.00
2018-03-18T11:49:23.717Z,15.60
2018-03-18T11:51:51.583Z,12.30
2018-03-18T11:54:19.452Z,15.30
2018-03-18T11:56:47.323Z,14.90
2018-03-18T11:59:15.185Z,12.70
2018-03-18T12:01:43.052Z,14.52
2018-03-18T12:04:10.920Z,11.52
2018-03-18T12:06:38.786Z,11.00
2018-03-18T12:09:06.654Z,25.48
2018-03-18T12:11:34.524Z,14.02
2018-03-18T12:14:02.388Z,10.65
2018-03-18T12:16:30.256Z,11.73
2018-03-18T12:18:58.123Z,14.40
2018-03-18T12:21:25.990Z,12.20
2018-03-18T12:23:53.857Z,13.80
2018-03-18T12:26:21.654Z,12.13
2018-03-18T12:28:50.309Z,10.60
2018-03-18T12:31:18.176Z,12.07
2018-03-18T12:33:46.044Z,12.07
2018-03-18T12:36:13.910Z,13.90
2018-03-18T12:38:41.778Z,12.00
2018-03-18T12:41:09.645Z,12.30
2018-03-18T12:43:37.515Z,11.57
2018-03-18T12:46:05.379Z,12.32
2018-03-18T12:48:33.259Z,14.75
2018-03-18T12:51:01.114Z,11.90
2018-03-18T12:53:28.980Z,12.75
2018-03-18T12:55:56.848Z,14.70
2018-03-18T12:58:24.716Z,11.32
2018-03-18T13:00:52.583Z,12.07
2018-03-18T13:03:20.451Z,11.07
2018-03-18T13:05:48.320Z,11.90
2018-03-18T13:08:16.191Z,12.35
2018-03-18T13:10:44.053Z,12.02
2018-03-18T13:13:11.920Z,13.02
2018-03-18T13:15:39.792Z,9.70
2018-03-18T13:18:07.654Z,11.35
2018-03-18T13:20:35.522Z,10.80
2018-03-18T13:23:03.401Z,8.98
2018-03-18T13:25:31.262Z,12.15
2018-03-18T13:27:59.124Z,10.80
2018-03-18T13:30:26.991Z,13.75
2018-03-18T13:32:54.963Z,12.60
2018-03-18T13:35:22.829Z,11.45
2018-03-18T13:37:50.625Z,12.40
2018-03-18T13:40:18.460Z,12.18
2018-03-18T13:42:46.328Z,14.75
2018-03-18T13:45:14.196Z,10.07
2018-03-18T13:47:42.061Z,13.40
2018-03-18T13:50:09.946Z,11.32
2018-03-18T13:52:37.799Z,12.95
2018-03-18T13:55:05.665Z,10.45
2018-03-18T13:57:33.531Z,8.25
2018-03-18T14:00:01.299Z,21.08
2018-03-18T14:02:29.171Z,13.25
2018-03-18T14:04:57.032Z,11.93
2018-03-18T14:07:25.822Z,13.98
2018-03-18T14:09:53.688Z,10.80
2018-03-18T14:12:21.618Z,11.45
2018-03-18T14:14:50.344Z,13.15
2018-03-18T14:17:18.212Z,12.85
2018-03-18T14:19:45.976Z,10.23
2018-03-18T14:22:13.845Z,13.77
2018-03-18T14:24:41.813Z,10.48
2018-03-18T14:27:09.680Z,9.65
2018-03-18T14:29:37.548Z,12.07
2018-03-18T14:32:05.419Z,9.90
2018-03-18T14:34:33.285Z,11.15
2018-03-18T14:37:01.151Z,9.98
2018-03-18T14:39:29.017Z,9.63
2018-03-18T14:41:58.798Z,9.35
2018-03-18T14:44:26.800Z,10.55
2018-03-18T14:46:54.667Z,11.95
2018-03-18T14:49:22.534Z,12.05
2018-03-18T14:51:50.403Z,11.82
2018-03-18T14:54:18.269Z,8.95
2018-03-18T14:56:46.137Z,11.90
2018-03-18T14:59:14.003Z,13.68
2018-03-18T15:01:41.874Z,8.85
2018-03-18T15:04:09.739Z,11.12
2018-03-18T15:06:37.607Z,10.30
2018-03-18T15:09:05.477Z,10.10
2018-03-18T15:11:33.344Z,11.12
2018-03-18T15:14:01.207Z,13.02
2018-03-18T15:16:29.075Z,12.15
2018-03-18T15:18:56.942Z,12.10
2018-03-18T15:21:24.815Z,10.48
2018-03-18T15:23:52.677Z,14.20
2018-03-18T15:26:20.544Z,10.13
2018-03-18T15:28:48.346Z,16.73
2018-03-18T15:31:16.995Z,12.80
2018-03-18T15:33:44.862Z,14.00
2018-03-18T15:36:12.730Z,12.93
2018-03-18T15:38:40.601Z,11.45
2018-03-18T15:41:08.393Z,12.10
2018-03-18T15:43:36.230Z,10.48
2018-03-18T15:46:04.099Z,10.45
2018-03-18T15:48:31.974Z,11.52
2018-03-18T15:50:59.831Z,12.15
2018-03-18T15:53:27.700Z,14.80
2018-03-18T15:55:55.572Z,10.88
2018-03-18T15:58:23.436Z,14.40
2018-03-18T16:00:51.302Z,11.30
2018-03-18T16:03:19.168Z,11.38
2018-03-18T16:05:47.038Z,12.30
2018-03-18T16:08:14.904Z,12.85
2018-03-18T16:10:43.592Z,12.70
2018-03-18T16:13:11.356Z,12.57
2018-03-18T16:15:39.224Z,10.93
2018-03-18T16:18:07.094Z,11.80
2018-03-18T16:20:34.957Z,10.98
2018-03-18T16:23:02.830Z,18.85
2018-03-18T16:25:30.706Z,9.57
2018-03-18T16:27:58.561Z,10.13
2018-03-18T16:33:29.113Z,12.98
2018-03-18T16:35:56.978Z,13.57
2018-03-18T16:38:24.847Z,11.73
2018-03-18T16:40:52.715Z,13.10
2018-03-18T16:43:20.593Z,12.80
2018-03-18T16:45:48.449Z,23.42
2018-03-18T16:48:16.315Z,10.75
2018-03-18T16:50:44.184Z,7.95
2018-03-18T16:53:12.052Z,15.25
2018-03-18T16:55:39.916Z,8.60
2018-03-18T16:58:07.786Z,9.65
2018-03-18T17:00:35.659Z,8.00
2018-03-18T17:03:03.519Z,12.05
2018-03-18T17:05:31.433Z,9.82
2018-03-18T17:08:00.073Z,9.10
2018-03-18T17:10:27.942Z,12.40
2018-03-18T17:12:55.808Z,9.80
2018-03-18T17:15:23.675Z,10.57
2018-03-18T17:17:51.645Z,9.27
2018-03-18T17:20:19.513Z,9.35
2018-03-18T17:22:47.384Z,10.30
2018-03-18T17:25:15.247Z,10.70
2018-03-18T17:27:43.114Z,10.20
2018-03-18T17:30:10.984Z,9.40
2018-03-18T17:32:38.847Z,14.13
2018-03-18T17:35:06.716Z,9.25
2018-03-18T17:37:34.582Z,12.55
2018-03-18T17:40:02.378Z,9.65
2018-03-18T17:42:31.035Z,10.93
2018-03-18T17:45:11.906Z,8.30
2018-03-18T17:47:51.758Z,9.50
2018-03-18T17:50:45.428Z,9.43
2018-03-18T17:53:25.174Z,9.05
2018-03-18T17:56:04.816Z,10.88
2018-03-18T17:58:32.682Z,8.35
2018-03-18T18:01:00.550Z,10.30
2018-03-18T18:03:28.418Z,10.48
2018-03-18T18:05:56.290Z,8.98
2018-03-18T18:08:24.156Z,11.43
2018-03-18T18:10:52.021Z,9.63
2018-03-18T18:13:19.889Z,10.50
2018-03-18T18:15:47.754Z,10.20
2018-03-18T18:18:15.623Z,7.80
2018-03-18T18:20:43.491Z,9.48
2018-03-18T18:23:11.360Z,14.07
2018-03-18T18:25:39.226Z,9.68
2018-03-18T18:28:07.092Z,7.32
2018-03-18T18:30:34.960Z,15.02
2018-03-18T18:33:02.827Z,8.80
2018-03-18T18:35:30.695Z,7.60
2018-03-18T18:37:58.561Z,10.45
2018-03-18T18:40:26.428Z,9.05
2018-03-18T18:42:54.296Z,8.15
2018-03-18T18:45:22.370Z,10.40
2018-03-18T18:47:50.236Z,7.53
2018-03-18T18:50:18.103Z,8.05
2018-03-18T18:52:45.970Z,8.98
2018-03-18T18:55:13.836Z,11.63
2018-03-18T18:57:41.714Z,8.82
2018-03-18T19:00:09.571Z,7.60
2018-03-18T19:02:37.439Z,8.85
2018-03-18T19:05:05.309Z,9.45
2018-03-18T19:07:33.174Z,6.37
2018-03-18T19:10:01.044Z,10.50
2018-03-18T19:12:28.908Z,7.87
2018-03-18T19:14:56.779Z,10.32
2018-03-18T19:17:24.643Z,7.30
2018-03-18T19:19:52.510Z,10.55
2018-03-18T19:22:20.378Z,7.68
2018-03-18T19:24:48.244Z,7.95
2018-03-18T19:27:16.111Z,5.82
2018-03-18T19:29:43.829Z,12.80
2018-03-18T19:32:11.642Z,11.35
2018-03-18T19:34:39.510Z,7.18
2018-03-18T19:37:07.379Z,9.02
2018-03-18T19:39:35.243Z,9.65
2018-03-18T19:42:03.214Z,6.80
2018-03-18T19:44:31.081Z,7.00
2018-03-18T19:46:58.947Z,12.10
2018-03-18T19:49:26.815Z,8.55
2018-03-18T19:51:54.682Z,11.60
2018-03-18T19:54:22.549Z,10.02
2018-03-18T19:56:50.416Z,8.18
2018-03-18T19:59:18.284Z,7.70
2018-03-18T20:01:46.151Z,8.50
2018-03-18T20:04:14.022Z,13.05
2018-03-18T20:06:41.888Z,11.07
2018-03-18T20:09:09.960Z,9.13
2018-03-18T20:11:37.832Z,10.10
2018-03-18T20:14:05.800Z,8.98
2018-03-18T20:16:33.696Z,11.00
2018-03-18T20:19:02.352Z,11.18
2018-03-18T20:21:30.216Z,11.05
2018-03-18T20:23:58.085Z,8.88
2018-03-18T20:26:25.950Z,8.88
2018-03-18T20:28:53.818Z,9.30
2018-03-18T20:31:21.686Z,11.15
2018-03-18T20:33:49.555Z,8.65
2018-03-18T20:36:17.420Z,9.80
2018-03-18T20:38:45.288Z,10.18
2018-03-18T20:41:13.153Z,10.65
2018-03-18T20:43:41.022Z,10.55
2018-03-18T20:46:09.196Z,8.73
2018-03-18T20:48:37.063Z,9.82
2018-03-18T20:51:04.931Z,8.18
2018-03-18T20:53:32.799Z,9.93
2018-03-18T20:56:00.665Z,8.35
2018-03-18T20:58:28.533Z,7.95
2018-03-18T21:00:56.400Z,10.38
2018-03-18T21:03:24.268Z,9.70
2018-03-18T21:05:52.135Z,11.32
2018-03-18T21:08:20.015Z,7.85
2018-03-18T21:10:47.873Z,6.65
2018-03-18T21:13:15.745Z,9.23
2018-03-18T21:15:43.605Z,8.65
2018-03-18T21:18:11.471Z,8.43
2018-03-18T21:20:39.338Z,9.20
2018-03-18T21:23:07.208Z,8.50
2018-03-18T21:25:35.073Z,11.10
2018-03-18T21:28:02.941Z,10.32
2018-03-18T21:30:30.808Z,8.73
2018-03-18T21:32:58.675Z,6.70
2018-03-18T21:35:26.471Z,8.90
2018-03-18T21:37:55.229Z,6.15
2018-03-18T21:40:23.102Z,14.48
2018-03-18T21:42:50.963Z,8.90
2018-03-18T21:45:18.832Z,8.18
2018-03-18T21:47:46.699Z,15.18
2018-03-18T21:50:14.567Z,7.47
2018-03-18T21:52:42.433Z,10.20
2018-03-18T21:55:10.300Z,10.65
2018-03-18T21:57:38.168Z,10.90
2018-03-18T22:00:06.035Z,7.40
2018-03-18T22:02:33.907Z,12.98
2018-03-18T22:05:01.769Z,7.20
2018-03-18T22:07:29.637Z,8.90
2018-03-18T22:09:57.504Z,9.73
2018-03-18T22:12:25.371Z,10.35
2018-03-18T22:14:53.239Z,10.73
2018-03-18T22:17:21.106Z,13.50
2018-03-18T22:19:48.901Z,9.93
2018-03-18T22:22:17.558Z,6.50
2018-03-18T22:24:45.426Z,8.15
2018-03-18T22:27:13.293Z,9.80
2018-03-18T22:29:41.161Z,14.40
2018-03-18T22:32:09.028Z,7.47
2018-03-18T22:34:36.826Z,11.27
2018-03-18T22:37:05.510Z,14.25
2018-03-18T22:39:33.346Z,9.25
2018-03-18T22:42:01.214Z,8.48
2018-03-18T22:44:29.081Z,9.60
2018-03-18T22:46:56.948Z,11.23
2018-03-18T22:49:24.815Z,11.77
2018-03-18T22:51:52.683Z,8.65
2018-03-18T22:54:20.549Z,9.77
2018-03-18T22:56:48.417Z,9.20
2018-03-18T22:59:16.287Z,9.93
2018-03-18T23:01:44.152Z,13.73
2018-03-18T23:04:12.020Z,8.95
2018-03-18T23:06:39.886Z,14.98
2018-03-18T23:09:08.163Z,9.57
2018-03-18T23:11:36.034Z,14.45
2018-03-18T23:14:03.899Z,13.40
2018-03-18T23:16:31.766Z,11.40
2018-03-18T23:18:59.633Z,7.65
2018-03-18T23:21:27.501Z,8.35
2018-03-18T23:23:55.368Z,11.25
2018-03-18T23:26:23.165Z,9.38
2018-03-18T23:28:51.818Z,10.35
2018-03-18T23:31:19.686Z,9.10
2018-03-18T23:33:47.560Z,10.35
2018-03-18T23:36:15.421Z,11.73
2018-03-18T23:38:43.288Z,10.70
2018-03-18T23:41:11.156Z,10.27
2018-03-18T23:43:39.023Z,13.52
2018-03-18T23:46:06.890Z,11.80
2018-03-18T23:48:34.758Z,9.65
2018-03-18T23:51:02.625Z,11.57
2018-03-18T23:53:30.598Z,10.93
2018-03-18T23:55:58.462Z,11.25
2018-03-18T23:58:26.329Z,13.45
